createdAt,value
2019-06-08T00:01:02.090Z,0
2019-06-08T00:02:14.000Z,0
2019-06-08T00:03:26.000Z,0
2019-06-08T00:04:38.855Z,0
2019-06-08T00:05:51.109Z,0
2019-06-08T00:07:03.364Z,0
2019-06-08T00:08:15.000Z,0
2019-06-08T00:09:27.000Z,0
2019-06-08T00:10:40.132Z,0
2019-06-08T00:11:52.393Z,0
2019-06-08T00:13:04.000Z,0
2019-06-08T00:14:16.000Z,0
2019-06-08T00:15:29.000Z,0
2019-06-08T00:16:41.000Z,0
2019-06-08T00:17:53.662Z,0
2019-06-08T00:19:05.000Z,0
2019-06-08T00:20:18.000Z,0
2019-06-08T00:21:30.000Z,0
2019-06-08T00:22:42.683Z,0
2019-06-08T00:23:54.937Z,0
2019-06-08T00:25:07.000Z,0
2019-06-08T00:26:19.000Z,0
2019-06-08T00:27:31.007Z,0
2019-06-08T00:28:43.000Z,0
2019-06-08T00:29:56.000Z,0
2019-06-08T00:31:08.000Z,0
2019-06-08T00:32:20.000Z,0
2019-06-08T00:33:32.981Z,0
2019-06-08T00:34:45.000Z,0
2019-06-08T00:35:57.000Z,0
2019-06-08T00:37:09.000Z,0
2019-06-08T00:38:21.000Z,0
2019-06-08T00:39:34.024Z,0
2019-06-08T00:40:46.000Z,0
2019-06-08T00:41:58.770Z,0
2019-06-08T00:43:11.000Z,0
2019-06-08T00:44:23.275Z,0
2019-06-08T00:45:35.536Z,0
2019-06-08T00:46:47.000Z,0
2019-06-08T00:48:00.053Z,0
2019-06-08T00:49:12.000Z,0
2019-06-08T00:50:24.547Z,0
2019-06-08T00:51:36.000Z,0
2019-06-08T00:52:49.000Z,0
2019-06-08T00:54:01.000Z,0
2019-06-08T00:55:13.574Z,0
2019-06-08T00:56:25.000Z,0
2019-06-08T00:57:38.000Z,0
2019-06-08T00:58:50.000Z,0
2019-06-08T01:00:02.059Z,0
2019-06-08T01:01:14.850Z,0
2019-06-08T01:02:27.000Z,0
2019-06-08T01:03:39.361Z,0
2019-06-08T01:04:51.000Z,0
2019-06-08T01:06:03.869Z,0
2019-06-08T01:07:16.000Z,0
2019-06-08T01:08:28.000Z,0
2019-06-08T01:09:40.000Z,0
2019-06-08T01:10:52.000Z,0
2019-06-08T01:12:05.144Z,0
2019-06-08T01:13:17.000Z,0
2019-06-08T01:14:29.000Z,0
2019-06-08T01:15:41.091Z,0
2019-06-08T01:16:54.166Z,0
2019-06-08T01:18:06.041Z,0
2019-06-08T01:19:18.000Z,0
2019-06-08T01:20:30.000Z,0
2019-06-08T01:21:43.199Z,0
2019-06-08T01:22:55.457Z,0
2019-06-08T01:24:07.000Z,0
2019-06-08T01:25:19.000Z,0
2019-06-08T01:26:32.207Z,0
2019-06-08T01:27:44.000Z,0
2019-06-08T01:28:56.000Z,0
2019-06-08T01:30:08.000Z,0
2019-06-08T01:31:21.000Z,0
2019-06-08T01:32:33.000Z,0
2019-06-08T01:33:45.073Z,0
2019-06-08T01:34:57.000Z,0
2019-06-08T01:36:10.249Z,0
2019-06-08T01:37:22.000Z,0
2019-06-08T01:38:34.761Z,0
2019-06-08T01:39:47.023Z,0
2019-06-08T01:40:59.000Z,0
2019-06-08T01:42:11.534Z,0
2019-06-08T01:44:36.040Z,0
2019-06-08T01:45:48.000Z,0
2019-06-08T01:47:00.000Z,0
2019-06-08T01:48:12.000Z,0
2019-06-08T01:49:25.064Z,0
2019-06-08T01:50:37.000Z,0
2019-06-08T01:51:49.000Z,0
2019-06-08T01:53:01.000Z,0
2019-06-08T01:54:14.079Z,0
2019-06-08T01:55:26.337Z,0
2019-06-08T01:56:38.000Z,0
2019-06-08T01:57:50.847Z,0
2019-06-08T01:59:03.000Z,0
2019-06-08T02:00:15.349Z,0
2019-06-08T02:01:27.000Z,0
2019-06-08T02:02:39.000Z,0
2019-06-08T02:03:52.125Z,0
2019-06-08T02:05:04.000Z,0
2019-06-08T02:06:16.627Z,0
2019-06-08T02:07:28.000Z,0
2019-06-08T02:08:41.000Z,16
2019-06-08T02:09:53.000Z,24
2019-06-08T02:11:05.646Z,24
2019-06-08T02:12:17.901Z,24
2019-06-08T02:13:30.000Z,20
2019-06-08T02:14:42.000Z,20
2019-06-08T02:15:54.674Z,20
2019-06-08T02:17:06.000Z,24
2019-06-08T02:18:19.000Z,24
2019-06-08T02:19:31.000Z,20
2019-06-08T02:20:43.000Z,20
2019-06-08T02:21:55.945Z,20
2019-06-08T02:23:08.000Z,24
2019-06-08T02:24:20.000Z,24
2019-06-08T02:25:32.714Z,24
2019-06-08T02:26:44.000Z,24
2019-06-08T02:27:57.222Z,24
2019-06-08T02:29:09.000Z,24
2019-06-08T02:30:21.743Z,28
2019-06-08T02:31:33.991Z,32
2019-06-08T02:32:46.024Z,32
2019-06-08T02:33:58.509Z,36
2019-06-08T02:35:10.000Z,36
2019-06-08T02:36:23.000Z,40
2019-06-08T02:37:35.000Z,40
2019-06-08T02:38:47.000Z,44
2019-06-08T02:39:59.000Z,48
2019-06-08T02:41:12.159Z,52
2019-06-08T02:42:24.000Z,56
2019-06-08T02:43:36.552Z,60
2019-06-08T02:44:48.802Z,64
2019-06-08T02:46:01.000Z,64
2019-06-08T02:47:13.000Z,80
2019-06-08T02:48:25.556Z,104
2019-06-08T02:49:37.814Z,120
2019-06-08T02:52:02.334Z,136
2019-06-08T02:53:14.000Z,140
2019-06-08T02:54:26.000Z,132
2019-06-08T02:55:39.000Z,128
2019-06-08T02:56:51.000Z,112
2019-06-08T02:58:03.000Z,100
2019-06-08T02:59:15.000Z,96
2019-06-08T03:00:28.106Z,120
2019-06-08T03:01:40.000Z,168
2019-06-08T03:02:52.626Z,224
2019-06-08T03:04:04.000Z,256
2019-06-08T03:05:17.134Z,280
2019-06-08T03:06:29.390Z,276
2019-06-08T03:07:41.000Z,244
2019-06-08T03:08:53.000Z,228
2019-06-08T03:10:06.015Z,244
2019-06-08T03:11:18.405Z,252
2019-06-08T03:12:30.000Z,252
2019-06-08T03:13:42.000Z,252
2019-06-08T03:14:55.000Z,276
2019-06-08T03:16:07.000Z,328
2019-06-08T03:17:19.000Z,360
2019-06-08T03:18:31.000Z,368
2019-06-08T03:19:44.000Z,372
2019-06-08T03:20:56.448Z,412
2019-06-08T03:22:08.703Z,476
2019-06-08T03:23:20.000Z,536
2019-06-08T03:24:33.209Z,564
2019-06-08T03:25:45.468Z,588
2019-06-08T03:26:57.728Z,612
2019-06-08T03:28:09.979Z,612
2019-06-08T03:29:22.000Z,572
2019-06-08T03:30:34.049Z,536
2019-06-08T03:31:46.000Z,528
2019-06-08T03:32:58.994Z,488
2019-06-08T03:34:11.000Z,424
2019-06-08T03:35:23.000Z,392
2019-06-08T03:36:35.000Z,396
2019-06-08T03:37:48.025Z,424
2019-06-08T03:39:00.000Z,416
2019-06-08T03:40:12.000Z,388
2019-06-08T03:41:24.786Z,364
2019-06-08T03:42:37.037Z,344
2019-06-08T03:43:49.000Z,360
2019-06-08T03:45:01.000Z,384
2019-06-08T03:46:13.813Z,428
2019-06-08T03:47:26.006Z,440
2019-06-08T03:48:38.310Z,400
2019-06-08T03:49:50.000Z,368
2019-06-08T03:51:02.000Z,352
2019-06-08T03:52:15.000Z,356
2019-06-08T03:53:27.000Z,392
2019-06-08T03:54:39.590Z,480
2019-06-08T03:55:51.000Z,600
2019-06-08T03:57:04.000Z,732
2019-06-08T03:58:16.000Z,744
2019-06-08T03:59:28.060Z,640
2019-06-08T04:00:40.086Z,620
2019-06-08T04:01:53.000Z,816
2019-06-08T04:03:05.358Z,1112
2019-06-08T04:04:17.000Z,1340
2019-06-08T04:05:29.886Z,1356
2019-06-08T04:06:42.000Z,1280
2019-06-08T04:10:18.905Z,1236
2019-06-08T04:11:31.000Z,1332
2019-06-08T04:12:43.000Z,1520
2019-06-08T04:13:55.000Z,1820
2019-06-08T04:15:07.926Z,2008
2019-06-08T04:16:20.017Z,2032
2019-06-08T04:17:32.000Z,1924
2019-06-08T04:18:44.689Z,1748
2019-06-08T04:19:56.947Z,1532
2019-06-08T04:21:09.000Z,1308
2019-06-08T04:22:21.460Z,1112
2019-06-08T04:23:33.000Z,1088
2019-06-08T04:24:45.968Z,1240
2019-06-08T04:25:58.000Z,1524
2019-06-08T04:27:10.473Z,1916
2019-06-08T04:28:22.000Z,2040
2019-06-08T04:29:34.000Z,1928
2019-06-08T04:30:47.246Z,1884
2019-06-08T04:31:59.000Z,2172
2019-06-08T04:33:11.760Z,2824
2019-06-08T04:34:24.000Z,3520
2019-06-08T04:35:36.259Z,3880
2019-06-08T04:36:48.521Z,3776
2019-06-08T04:38:00.776Z,3552
2019-06-08T04:39:13.000Z,3500
2019-06-08T04:40:25.288Z,3644
2019-06-08T04:41:37.542Z,3708
2019-06-08T04:42:49.801Z,3732
2019-06-08T04:44:02.000Z,3856
2019-06-08T04:45:14.000Z,3832
2019-06-08T04:46:26.000Z,3756
2019-06-08T04:47:38.000Z,3568
2019-06-08T04:48:51.089Z,3556
2019-06-08T04:50:03.000Z,3900
2019-06-08T04:51:15.000Z,4108
2019-06-08T04:53:40.096Z,3692
2019-06-08T04:54:52.350Z,3508
2019-06-08T04:56:04.000Z,3416
2019-06-08T04:57:16.867Z,3576
2019-06-08T04:58:29.012Z,3848
2019-06-08T04:59:41.371Z,4448
2019-06-08T05:00:53.000Z,4940
2019-06-08T05:02:05.000Z,5412
2019-06-08T05:03:18.000Z,5900
2019-06-08T05:04:30.000Z,7168
2019-06-08T05:05:42.000Z,9884
2019-06-08T05:06:54.000Z,10668
2019-06-08T05:08:07.150Z,9608
2019-06-08T05:09:19.000Z,9516
2019-06-08T05:10:31.662Z,9616
2019-06-08T05:11:43.000Z,11304
2019-06-08T05:12:56.174Z,10856
2019-06-08T05:14:08.430Z,9108
2019-06-08T05:15:20.682Z,7180
2019-06-08T05:16:32.942Z,7344
2019-06-08T05:17:45.000Z,7336
2019-06-08T05:18:57.000Z,6812
2019-06-08T05:20:09.000Z,6752
2019-06-08T05:21:21.960Z,6368
2019-06-08T05:22:34.000Z,5908
2019-06-08T05:23:46.000Z,6080
2019-06-08T05:24:58.745Z,6796
2019-06-08T05:26:10.984Z,6788
2019-06-08T05:27:23.024Z,6860
2019-06-08T05:28:35.000Z,6924
2019-06-08T05:29:47.000Z,7144
2019-06-08T05:31:00.011Z,8996
2019-06-08T05:32:12.000Z,12352
2019-06-08T05:33:24.000Z,12620
2019-06-08T05:34:36.769Z,31520
2019-06-08T05:35:49.000Z,31168
2019-06-08T05:37:01.278Z,35968
2019-06-08T05:39:25.000Z,33600
2019-06-08T05:40:38.000Z,32640
2019-06-08T05:41:50.304Z,18624
2019-06-08T05:43:02.559Z,6356
2019-06-08T05:44:14.000Z,5936
2019-06-08T05:45:27.000Z,5924
2019-06-08T05:46:39.000Z,5916
2019-06-08T05:47:51.579Z,5916
2019-06-08T05:49:03.831Z,6056
2019-06-08T05:50:16.000Z,5936
2019-06-08T05:51:28.344Z,5948
2019-06-08T05:52:40.600Z,5936
2019-06-08T05:53:52.853Z,5956
2019-06-08T05:55:05.000Z,6024
2019-06-08T05:57:29.000Z,6052
2019-06-08T05:58:41.872Z,6072
2019-06-08T05:59:54.000Z,6200
2019-06-08T06:01:06.000Z,6284
2019-06-08T06:02:18.000Z,6356
2019-06-08T06:03:30.000Z,6472
2019-06-08T06:04:43.269Z,6076
2019-06-08T06:05:55.000Z,6464
2019-06-08T06:07:07.780Z,6616
2019-06-08T06:08:20.035Z,6476
2019-06-08T06:09:32.000Z,6428
2019-06-08T06:10:44.550Z,6452
2019-06-08T06:11:56.000Z,6444
2019-06-08T06:13:09.000Z,6556
2019-06-08T06:14:21.000Z,6656
2019-06-08T06:15:33.000Z,6772
2019-06-08T06:16:45.000Z,6920
2019-06-08T06:17:58.076Z,7016
2019-06-08T06:19:10.000Z,7008
2019-06-08T06:20:22.587Z,7096
2019-06-08T06:21:34.842Z,7592
2019-06-08T06:22:47.000Z,10152
2019-06-08T06:23:59.000Z,13196
2019-06-08T06:25:11.607Z,13260
2019-06-08T06:26:23.860Z,12392
2019-06-08T06:27:36.000Z,13532
2019-06-08T06:28:48.371Z,14464
2019-06-08T06:30:00.000Z,15644
2019-06-08T06:31:12.882Z,16196
2019-06-08T06:32:25.000Z,16172
2019-06-08T06:33:37.000Z,15920
2019-06-08T06:34:49.000Z,15488
2019-06-08T06:36:01.907Z,15072
2019-06-08T06:37:14.161Z,14868
2019-06-08T06:38:26.000Z,13548
2019-06-08T06:39:38.000Z,11640
2019-06-08T06:40:50.000Z,9764
2019-06-08T06:42:03.188Z,8420
2019-06-08T06:43:15.432Z,7984
2019-06-08T06:44:27.000Z,8132
2019-06-08T06:45:39.000Z,9504
2019-06-08T06:46:52.002Z,10308
2019-06-08T06:48:04.000Z,10332
2019-06-08T06:49:16.000Z,9128
2019-06-08T06:50:28.000Z,8712
2019-06-08T06:51:41.228Z,8084
2019-06-08T06:52:53.477Z,8428
2019-06-08T06:54:05.000Z,8776
2019-06-08T06:55:17.000Z,9900
2019-06-08T06:56:30.000Z,10908
2019-06-08T06:57:42.000Z,12600
2019-06-08T06:58:54.000Z,11864
2019-06-08T07:00:07.000Z,12248
2019-06-08T07:01:19.264Z,14496
2019-06-08T07:02:31.000Z,17696
2019-06-08T07:03:43.000Z,16920
2019-06-08T07:04:56.042Z,18208
2019-06-08T07:06:08.000Z,18176
2019-06-08T07:07:20.000Z,18240
2019-06-08T07:08:32.000Z,17536
2019-06-08T07:09:45.062Z,16804
2019-06-08T07:16:58.000Z,12516
2019-06-08T07:18:10.000Z,12868
2019-06-08T07:19:23.096Z,13372
2019-06-08T07:20:35.347Z,13660
2019-06-08T07:21:47.000Z,13764
2019-06-08T07:22:59.866Z,13992
2019-06-08T07:24:12.000Z,14520
2019-06-08T07:25:24.000Z,15232
2019-06-08T07:26:36.000Z,15976
2019-06-08T07:27:48.000Z,16776
2019-06-08T07:29:01.000Z,15616
2019-06-08T07:30:13.395Z,14740
2019-06-08T07:31:25.000Z,15028
2019-06-08T07:32:37.000Z,17392
2019-06-08T07:33:50.000Z,19680
2019-06-08T07:35:02.405Z,20768
2019-06-08T07:36:14.000Z,21120
2019-06-08T07:37:26.092Z,21088
2019-06-08T07:38:39.000Z,20672
2019-06-08T07:39:51.428Z,19680
2019-06-08T07:41:03.692Z,18432
2019-06-08T07:42:15.000Z,16912
2019-06-08T07:43:28.000Z,15932
2019-06-08T07:44:40.000Z,14660
2019-06-08T07:45:52.000Z,13240
2019-06-08T07:47:04.960Z,11688
2019-06-08T07:48:17.223Z,10928
2019-06-08T07:49:29.000Z,10768
2019-06-08T07:50:41.718Z,10920
2019-06-08T07:51:53.981Z,10492
2019-06-08T07:53:06.000Z,10432
2019-06-08T07:54:18.000Z,10328
2019-06-08T07:55:30.742Z,9916
2019-06-08T07:56:42.000Z,9400
2019-06-08T07:57:55.270Z,9172
2019-06-08T07:59:07.521Z,8588
2019-06-08T08:00:19.000Z,8164
2019-06-08T08:01:32.000Z,7980
2019-06-08T08:02:44.000Z,8156
2019-06-08T08:03:56.534Z,8452
2019-06-08T08:05:08.000Z,9140
2019-06-08T08:06:21.000Z,10012
2019-06-08T08:07:33.304Z,11124
2019-06-08T08:08:45.000Z,11624
2019-06-08T08:09:57.000Z,12072
2019-06-08T08:11:10.000Z,13232
2019-06-08T08:12:22.324Z,14360
2019-06-08T08:13:34.587Z,15588
2019-06-08T08:14:46.837Z,16416
2019-06-08T08:15:59.000Z,17728
2019-06-08T08:17:11.350Z,17728
2019-06-08T08:18:23.601Z,17340
2019-06-08T08:19:35.855Z,16788
2019-06-08T08:20:48.000Z,14516
2019-06-08T08:22:00.000Z,12152
2019-06-08T08:23:12.000Z,10300
2019-06-08T08:24:24.000Z,9072
2019-06-08T08:25:37.140Z,8660
2019-06-08T08:26:49.000Z,8004
2019-06-08T08:28:01.000Z,7740
2019-06-08T08:29:13.000Z,7836
2019-06-08T08:30:26.000Z,8112
2019-06-08T08:31:38.402Z,8932
2019-06-08T08:34:02.928Z,9336
2019-06-08T08:35:15.176Z,9588
2019-06-08T08:36:27.000Z,10860
2019-06-08T08:37:39.000Z,11644
2019-06-08T08:38:51.000Z,12704
2019-06-08T08:40:04.194Z,13680
2019-06-08T08:41:16.450Z,14212
2019-06-08T08:42:28.000Z,15384
2019-06-08T08:43:40.000Z,14792
2019-06-08T08:44:53.000Z,14216
2019-06-08T08:46:05.000Z,12392
2019-06-08T08:47:17.000Z,11680
2019-06-08T08:48:29.000Z,10696
2019-06-08T08:49:42.024Z,9772
2019-06-08T08:50:54.000Z,9544
2019-06-08T08:52:06.000Z,9704
2019-06-08T08:53:19.016Z,9556
2019-06-08T08:54:31.000Z,8984
2019-06-08T08:55:43.525Z,7348
2019-06-08T08:56:55.000Z,6508
2019-06-08T08:58:08.000Z,6896
2019-06-08T08:59:20.000Z,7840
2019-06-08T09:00:32.555Z,10212
2019-06-08T09:01:44.000Z,12880
2019-06-08T09:02:57.000Z,14036
2019-06-08T09:04:09.000Z,13248
2019-06-08T09:05:21.000Z,13732
2019-06-08T09:06:33.830Z,15344
2019-06-08T09:07:46.095Z,15952
2019-06-08T09:08:58.000Z,17212
2019-06-08T09:10:10.000Z,18464
2019-06-08T09:11:22.865Z,19808
2019-06-08T09:12:35.000Z,20000
2019-06-08T09:13:47.000Z,19296
2019-06-08T09:14:59.000Z,19168
2019-06-08T09:16:11.000Z,18784
2019-06-08T09:17:24.000Z,17696
2019-06-08T09:18:36.040Z,16428
2019-06-08T09:19:48.000Z,15484
2019-06-08T09:21:00.000Z,14884
2019-06-08T09:22:13.000Z,14048
2019-06-08T09:23:25.000Z,13148
2019-06-08T09:24:37.000Z,12548
2019-06-08T09:25:49.945Z,12284
2019-06-08T09:27:02.000Z,12276
2019-06-08T09:28:14.000Z,12520
2019-06-08T09:29:26.072Z,12840
2019-06-08T09:30:38.000Z,13160
2019-06-08T09:31:51.000Z,13432
2019-06-08T09:33:03.000Z,13696
2019-06-08T09:34:15.000Z,14420
2019-06-08T09:35:27.000Z,15812
2019-06-08T09:36:40.256Z,16428
2019-06-08T09:37:52.000Z,16840
2019-06-08T09:39:04.000Z,18688
2019-06-08T09:40:17.000Z,21024
2019-06-08T09:41:29.000Z,21568
2019-06-08T09:42:41.000Z,22016
2019-06-08T09:43:54.317Z,22784
2019-06-08T09:45:06.000Z,22304
2019-06-08T09:46:18.316Z,20640
2019-06-08T09:47:30.000Z,19104
2019-06-08T09:48:42.000Z,19328
2019-06-08T09:49:55.000Z,19072
2019-06-08T09:51:07.000Z,19488
2019-06-08T09:52:19.000Z,17568
2019-06-08T09:53:31.000Z,16104
2019-06-08T09:54:44.116Z,16264
2019-06-08T09:55:56.000Z,17728
2019-06-08T09:57:08.000Z,18944
2019-06-08T09:58:20.000Z,19360
2019-06-08T09:59:33.000Z,19264
2019-06-08T10:00:45.000Z,18656
2019-06-08T10:01:57.653Z,17268
2019-06-08T10:03:09.911Z,17632
2019-06-08T10:04:22.000Z,16488
2019-06-08T10:05:34.422Z,15088
2019-06-08T10:06:46.674Z,13988
2019-06-08T10:07:58.936Z,14144
2019-06-08T10:09:11.000Z,15124
2019-06-08T10:10:23.000Z,16424
2019-06-08T10:11:35.000Z,16812
2019-06-08T10:12:47.962Z,16732
2019-06-08T10:14:00.000Z,18688
2019-06-08T10:15:12.000Z,20288
2019-06-08T10:16:24.000Z,20384
2019-06-08T10:17:36.000Z,20768
2019-06-08T10:18:49.252Z,20608
2019-06-08T10:20:01.501Z,18912
2019-06-08T10:21:13.000Z,18272
2019-06-08T10:22:26.011Z,16720
2019-06-08T10:23:38.027Z,16228
2019-06-08T10:24:50.000Z,17232
2019-06-08T10:26:02.000Z,16172
2019-06-08T10:28:27.304Z,14336
2019-06-08T10:29:39.000Z,15044
2019-06-08T10:30:51.000Z,16148
2019-06-08T10:32:04.000Z,16740
2019-06-08T10:33:16.000Z,13304
2019-06-08T10:34:28.000Z,11372
2019-06-08T10:35:40.000Z,10984
2019-06-08T10:36:53.000Z,11464
2019-06-08T10:38:05.360Z,12868
2019-06-08T10:39:17.000Z,14048
2019-06-08T10:40:29.087Z,15812
2019-06-08T10:41:42.014Z,18048
2019-06-08T10:42:54.000Z,18784
2019-06-08T10:44:06.000Z,18880
2019-06-08T10:45:18.000Z,18528
2019-06-08T10:46:31.000Z,18400
2019-06-08T10:47:43.000Z,19616
2019-06-08T10:48:55.000Z,21248
2019-06-08T10:50:07.926Z,22048
2019-06-08T10:51:20.187Z,21312
2019-06-08T10:52:32.000Z,21312
2019-06-08T10:53:44.000Z,22432
2019-06-08T10:54:56.000Z,20928
2019-06-08T10:56:09.213Z,19008
2019-06-08T10:57:21.468Z,19264
2019-06-08T10:58:33.000Z,21280
2019-06-08T10:59:45.983Z,22592
2019-06-08T11:00:58.000Z,20704
2019-06-08T11:02:10.000Z,21056
2019-06-08T11:03:22.000Z,20832
2019-06-08T11:04:35.000Z,20128
2019-06-08T11:05:47.000Z,21536
2019-06-08T11:06:59.542Z,19392
2019-06-08T11:08:11.078Z,15888
2019-06-08T11:09:24.000Z,13020
2019-06-08T11:10:36.000Z,11724
2019-06-08T11:11:48.000Z,14984
2019-06-08T11:13:00.000Z,17176
2019-06-08T11:14:13.068Z,16392
2019-06-08T11:15:25.000Z,19008
2019-06-08T11:16:37.000Z,16724
2019-06-08T11:17:49.084Z,14704
2019-06-08T11:19:02.000Z,15604
2019-06-08T11:20:14.000Z,15056
2019-06-08T11:21:26.000Z,12904
2019-06-08T11:22:38.000Z,13972
2019-06-08T11:23:51.127Z,15580
2019-06-08T11:25:03.000Z,19104
2019-06-08T11:26:15.000Z,20256
2019-06-08T11:27:27.000Z,20000
2019-06-08T11:28:40.000Z,20480
2019-06-08T11:29:52.000Z,21344
2019-06-08T11:31:04.000Z,21408
2019-06-08T11:32:16.927Z,21696
2019-06-08T11:33:29.000Z,21984
2019-06-08T11:34:41.439Z,21888
2019-06-08T11:35:53.708Z,21728
2019-06-08T11:37:05.000Z,23072
2019-06-08T11:38:18.000Z,25856
2019-06-08T11:39:30.000Z,25376
2019-06-08T11:40:42.000Z,23648
2019-06-08T11:41:54.000Z,17888
2019-06-08T11:43:07.000Z,15540
2019-06-08T11:44:19.000Z,17328
2019-06-08T11:45:31.000Z,16300
2019-06-08T11:46:43.000Z,15744
2019-06-08T11:47:56.000Z,13996
2019-06-08T11:49:08.000Z,13520
2019-06-08T11:50:20.078Z,14504
2019-06-08T11:51:33.000Z,19744
2019-06-08T11:52:45.000Z,23776
2019-06-08T11:53:57.558Z,22528
2019-06-08T11:55:09.000Z,19232
2019-06-08T11:56:22.066Z,20096
2019-06-08T11:58:46.000Z,16544
2019-06-08T11:59:58.000Z,15752
2019-06-08T12:01:11.096Z,17728
2019-06-08T12:02:23.000Z,17952
2019-06-08T12:03:35.000Z,18496
2019-06-08T12:04:47.000Z,18880
2019-06-08T12:06:00.000Z,20768
2019-06-08T12:07:12.000Z,21888
2019-06-08T12:08:24.637Z,22368
2019-06-08T12:09:36.000Z,22784
2019-06-08T12:10:49.000Z,22816
2019-06-08T12:12:01.040Z,22400
2019-06-08T12:13:13.000Z,23040
2019-06-08T12:14:25.000Z,22496
2019-06-08T12:15:38.000Z,22560
2019-06-08T12:16:50.000Z,22912
2019-06-08T12:18:02.695Z,23488
2019-06-08T12:19:14.000Z,23616
2019-06-08T12:20:27.000Z,22784
2019-06-08T12:21:39.000Z,21824
2019-06-08T12:22:51.000Z,20960
2019-06-08T12:24:03.984Z,20416
2019-06-08T12:25:16.000Z,19200
2019-06-08T12:26:28.048Z,20192
2019-06-08T12:27:40.000Z,21792
2019-06-08T12:28:53.004Z,20736
2019-06-08T12:30:05.000Z,18272
2019-06-08T12:31:17.000Z,14952
2019-06-08T12:32:29.000Z,14100
2019-06-08T12:33:42.000Z,13124
2019-06-08T12:34:54.000Z,11536
2019-06-08T12:36:06.000Z,9600
2019-06-08T12:37:18.000Z,8400
2019-06-08T12:38:31.063Z,7548
2019-06-08T12:39:43.321Z,6212
2019-06-08T12:40:55.000Z,6644
2019-06-08T12:42:07.000Z,6872
2019-06-08T12:43:20.000Z,7012
2019-06-08T12:44:32.348Z,6920
2019-06-08T12:45:44.000Z,6816
2019-06-08T12:46:56.000Z,7052
2019-06-08T12:48:09.121Z,7452
2019-06-08T12:49:21.000Z,8064
2019-06-08T12:50:33.000Z,8632
2019-06-08T12:52:58.000Z,8424
2019-06-08T12:54:10.406Z,7240
2019-06-08T12:55:22.066Z,7196
2019-06-08T12:56:34.000Z,6924
2019-06-08T12:57:47.000Z,7520
2019-06-08T12:58:59.000Z,8620
2019-06-08T13:00:11.000Z,8468
2019-06-08T13:01:23.945Z,7560
2019-06-08T13:02:36.021Z,6928
2019-06-08T13:05:00.719Z,6500
2019-06-08T13:06:12.000Z,6320
2019-06-08T13:07:25.000Z,6256
2019-06-08T13:08:37.000Z,6156
2019-06-08T13:09:49.000Z,6096
2019-06-08T13:11:01.000Z,5740
2019-06-08T13:12:14.257Z,6544
2019-06-08T13:13:26.517Z,6052
2019-06-08T13:14:38.000Z,6024
2019-06-08T13:15:51.000Z,7488
2019-06-08T13:17:03.000Z,7236
2019-06-08T13:18:15.550Z,8192
2019-06-08T13:19:27.000Z,7760
2019-06-08T13:20:40.062Z,7284
2019-06-08T13:21:52.000Z,6932
2019-06-08T13:23:04.000Z,6652
2019-06-08T13:24:16.831Z,6720
2019-06-08T13:25:29.000Z,6992
2019-06-08T13:26:41.000Z,7832
2019-06-08T13:27:53.000Z,10536
2019-06-08T13:29:05.000Z,10840
2019-06-08T13:30:18.000Z,10048
2019-06-08T13:31:30.371Z,9368
2019-06-08T13:32:42.000Z,8540
2019-06-08T13:33:54.000Z,7528
2019-06-08T13:35:07.000Z,7236
2019-06-08T13:36:19.000Z,7724
2019-06-08T13:37:31.000Z,7564
2019-06-08T13:38:43.921Z,7316
2019-06-08T13:39:56.000Z,7260
2019-06-08T13:41:08.000Z,7584
2019-06-08T13:42:20.069Z,8444
2019-06-08T13:43:32.960Z,9536
2019-06-08T13:44:45.202Z,9416
2019-06-08T13:45:57.000Z,10380
2019-06-08T13:47:09.000Z,10584
2019-06-08T13:48:21.000Z,9456
2019-06-08T13:49:34.229Z,7744
2019-06-08T13:50:46.000Z,6616
2019-06-08T13:51:58.000Z,6092
2019-06-08T13:53:10.000Z,6028
2019-06-08T13:54:23.000Z,6092
2019-06-08T13:55:35.000Z,6120
2019-06-08T13:56:47.774Z,5856
2019-06-08T13:58:00.000Z,5644
2019-06-08T13:59:12.000Z,5536
2019-06-08T14:00:24.000Z,5520
2019-06-08T14:01:36.800Z,5744
2019-06-08T14:02:49.000Z,5828
2019-06-08T14:04:01.000Z,5564
2019-06-08T14:05:13.000Z,5576
2019-06-08T14:06:25.000Z,5084
2019-06-08T14:07:38.091Z,5592
2019-06-08T14:08:50.000Z,6500
2019-06-08T14:10:02.000Z,8140
2019-06-08T14:11:14.000Z,8996
2019-06-08T14:12:27.000Z,7636
2019-06-08T14:13:39.000Z,6708
2019-06-08T14:14:51.637Z,6600
2019-06-08T14:16:03.000Z,6276
2019-06-08T14:17:16.164Z,6044
2019-06-08T14:18:28.412Z,5780
2019-06-08T14:19:40.000Z,5800
2019-06-08T14:20:52.000Z,5568
2019-06-08T14:22:05.000Z,5512
2019-06-08T14:23:17.000Z,5420
2019-06-08T14:24:29.000Z,5432
2019-06-08T14:25:41.000Z,5460
2019-06-08T14:26:54.206Z,5448
2019-06-08T14:28:06.000Z,5472
2019-06-08T14:29:18.000Z,5476
2019-06-08T14:31:43.000Z,5588
2019-06-08T14:32:55.486Z,5552
2019-06-08T14:34:07.746Z,5592
2019-06-08T14:35:19.000Z,5608
2019-06-08T14:36:32.002Z,5632
2019-06-08T14:37:44.000Z,5584
2019-06-08T14:38:56.776Z,5620
2019-06-08T14:41:21.000Z,5776
2019-06-08T14:42:33.000Z,5968
2019-06-08T14:43:45.000Z,7020
2019-06-08T14:44:58.000Z,6112
2019-06-08T14:46:10.000Z,5992
2019-06-08T14:47:22.000Z,6120
2019-06-08T14:48:34.835Z,6012
2019-06-08T14:49:47.092Z,5912
2019-06-08T14:50:59.356Z,5864
2019-06-08T14:52:11.000Z,5900
2019-06-08T14:53:23.000Z,5908
2019-06-08T14:54:36.127Z,5912
2019-06-08T14:55:48.000Z,5936
2019-06-08T14:57:00.000Z,5928
2019-06-08T14:58:11.000Z,6012
2019-06-08T14:59:25.000Z,6044
2019-06-08T15:00:37.413Z,5984
2019-06-08T15:01:49.674Z,5860
2019-06-08T15:03:01.000Z,6176
2019-06-08T15:04:14.000Z,7096
2019-06-08T15:05:26.000Z,7772
2019-06-08T15:06:38.000Z,6940
2019-06-08T15:07:50.000Z,6224
2019-06-08T15:09:03.210Z,6088
2019-06-08T15:10:15.000Z,6008
2019-06-08T15:11:27.000Z,5928
2019-06-08T15:12:39.983Z,6136
2019-06-08T15:13:52.000Z,6164
2019-06-08T15:16:16.000Z,5820
2019-06-08T15:17:29.010Z,5720
2019-06-08T15:18:41.000Z,5968
2019-06-08T15:19:53.000Z,5948
2019-06-08T15:21:05.788Z,5944
2019-06-08T15:22:18.000Z,5376
2019-06-08T15:23:30.000Z,5828
2019-06-08T15:24:42.000Z,5880
2019-06-08T15:25:54.000Z,5884
2019-06-08T15:27:07.074Z,5888
2019-06-08T15:28:19.000Z,5856
2019-06-08T15:29:31.000Z,5856
2019-06-08T15:30:43.000Z,5848
2019-06-08T15:31:56.000Z,5804
2019-06-08T15:33:08.356Z,5672
2019-06-08T15:34:20.000Z,5624
2019-06-08T15:35:32.000Z,5640
2019-06-08T15:36:45.000Z,5636
2019-06-08T15:37:57.389Z,5600
2019-06-08T15:39:09.636Z,5788
2019-06-08T15:40:21.000Z,5632
2019-06-08T15:41:34.000Z,5600
2019-06-08T15:42:46.000Z,5864
2019-06-08T15:43:58.000Z,6224
2019-06-08T15:45:10.928Z,6744
2019-06-08T15:46:23.000Z,7100
2019-06-08T15:47:35.000Z,7540
2019-06-08T15:48:47.700Z,7340
2019-06-08T15:49:59.955Z,6944
2019-06-08T15:52:24.000Z,6388
2019-06-08T15:53:36.726Z,6248
2019-06-08T15:54:48.992Z,6424
2019-06-08T15:56:01.000Z,6596
2019-06-08T15:57:13.000Z,6892
2019-06-08T15:58:25.000Z,7020
2019-06-08T15:59:37.000Z,7288
2019-06-08T16:00:50.000Z,7600
2019-06-08T16:02:02.000Z,9024
2019-06-08T16:03:14.785Z,21888
2019-06-08T16:04:27.000Z,33792
2019-06-08T16:05:39.000Z,33216
2019-06-08T16:06:51.555Z,34656
2019-06-08T16:08:03.000Z,12692
2019-06-08T16:09:16.072Z,7296
2019-06-08T16:11:40.058Z,39616
2019-06-08T16:12:52.000Z,37280
2019-06-08T16:14:05.104Z,35712
2019-06-08T16:15:17.000Z,36096
2019-06-08T16:16:29.625Z,37504
2019-06-08T16:17:41.000Z,37984
2019-06-08T16:18:54.000Z,36224
2019-06-08T16:21:18.064Z,33248
2019-06-08T16:22:30.000Z,33792
2019-06-08T16:23:43.000Z,33568
2019-06-08T16:24:55.420Z,33984
2019-06-08T16:26:07.000Z,37312
2019-06-08T16:27:19.938Z,40352
2019-06-08T16:28:32.000Z,36128
2019-06-08T16:29:44.000Z,35168
2019-06-08T16:30:56.000Z,33824
2019-06-08T16:32:08.000Z,32864
2019-06-08T16:33:21.000Z,32896
2019-06-08T16:34:33.000Z,32608
2019-06-08T16:35:45.000Z,31840